Archival Weather

Aeroparque Jorge Newbery

Buenos Aires, Argentina (SABE)

Report from: Thursday, September 21, 2023 12:00 AM -03
Current time: Saturday, March 2, 2024 7:50 AM -03

Current weather – Weather history – Daily summaries
Weather forecast

Present weatherLight drizzle, mist
Temperature16.0°C (60.8°F)
Dew point15.0°C (59.0°F)
Winds 11 kts (5.7 m/s, 12.7 mph) East-Southeast (110°)
Visibility4921.3 ft. (1.5 km)
Clouds Ceiling: Overcast 200 ft. (61 m)
Altimeter29.88 in.Hg (1012 mB)
Relative humidity94 %
Density altitude396 ft. (121 m)
Remarks Corrected report
No significant changes expected in the next two hours
Flight conditions Low Instrument Meteorological Conditions
Raw dataCOR SABE 210300Z 11011KT 1500 -DZ BR OVC002 16/15 Q1012 NOSIG RMK PP999
An error has occurred. This application may no longer respond until reloaded. Reload 🗙